Washburn, ME (04786)

2:12 AM EDT on October 21, 2014 (GMT -0400)
Micmac Environmental | Change Station
CLOSE
Current Station
Personal Weather Station
Location: Caribou, ME
Elevation: 634 ft
Nearby Weather Stations

Elev 634 ft 46.78 °N, 67.99 °W | Updated 0 second ago

Clear
Clear
30.9 °F
Feels Like 31 °F
N
0.0
Wind Variable Wind from South
Gusts 0.0 mph

Today
High -- | Low -- °F
--% Chance of Precip.
Yesterday
High -- | Low -- °F
Precip. -- in
6:58 AM 5:34 PM
Waning Crescent, 7% visible
Pressure 29.97 in
Visibility 10.0 miles
Clouds Clear
Windchill 31 °F
Dew Point 27 °F
Humidity 86%
Rainfall 0.00 in
Snow Depth Not available.
UV 0.0 out of 12
Pollen .30 out of 12
Ozone Good
PM2.5 Good
Flu Activity Sporadic
METAR KPQI 210555Z AUTO 20003KT 10SM CLR M02/M06 A2997 RMK AO1 10030 21020 52010

More Conditions Fewer Conditions

Pressure 29.97 in
Visibility 10.0 miles
Clouds Clear
Windchill 31 °F
Dew Point 27 °F
Humidity 86%
Rainfall 0.00 in
Snow Depth Not available.
UV 0.0 out of 12
Pollen .30 out of 12
Ozone Good
PM2.5 Good
Flu Activity Sporadic
METAR KPQI 210555Z AUTO 20003KT 10SM CLR M02/M06 A2997 RMK AO1 10030 21020 52010

More Conditions Fewer Conditions

10-Day Weather Forecast

Almanac

Astronomy

Oct. 21, 2014 Rise Set
Actual Time 6:58 AM EDT 5:34 PM EDT
Civil Twilight 6:27 AM EDT 6:05 PM EDT
Nautical Twilight 5:52 AM EDT 6:40 PM EDT
Astronomical Twilight 5:17 AM EDT 7:15 PM EDT
Moon 4:31 AM EDT 4:33 PM EDT
Length of Visible Light 11h 37m
Length of Day
10h 36m
Tomorrow will be 3m 10s shorter.
Waning Crescent, 7% of the Moon is Illuminated
Today
Waning Crescent
Oct 23
New
Oct 30
First Quarter
Nov 6
Full
Nov 14
Last Quarter

Today's Extremes

State Highs State Lows

Community

WunderPhotos

Upload Photos

1,763,614 photos uploaded!

Nearby

Air Quality

  Air Quality AQ Index Pollutant
Yesterday Good
OZONE
Yesterday Good
PM2.5
Current Good
PM2.5
Current Good
OZONE
Tuesday Good
OZONE
Tuesday Good
PM2.5
Wednesday Good
OZONE
Wednesday Good
PM2.5
Thursday Good
OZONE
Thursday Good
PM2.5
Friday Good
OZONE
Friday Good
PM2.5
Saturday Good
OZONE
Saturday Good
PM2.5

Snow Depth

Station Depth Elevation
No new snow has been reported.

Earthquake Activity

City Distance Mag. Time & Date
No recent earthquake activity has been reported nearby.
Minimum magnitude displayed is 2.5.

Coastal Water Temperatures

Place Temperature
No Stations Reporting

Nearby Weather Stations